Portada
METAR-TAF:

METAR-TAF

Aeropuertos :

Aeropuerto Internacional de Harare

Harare, Zimbabue

latitud: 17-55S, longitud: 031-08E, altitud: 1479 m

Observación

El informe se hizo hace 16 horas y 14 minutos, a las 04:00 UTC
Viento 7 kt del este
Temperatura 13°C
Humedad 58%
Presión 1025 hPa
Visibilidad 10 km o más
sin nubes por debajo de 1500 m y sin presencia de cumulonimbus.

METAR: FVHA 210400Z 08007KT CAVOK 13/05 Q1025 NOSIG

Hora: 22:14 (20:14 UTC)

Pronóstico

El informe se hizo hace 16 horas y 14 minutos, a las 04:00 UTC
Pronóstico válido del 21 a las 00 UTC al 22 a las 06 UTC
Viento 8 kt del este-noreste
Visibilidad 10 km o más
sin nubes por debajo de 1500 m y sin presencia de cumulonimbus.

TAF: FVHA 210400Z 2100/2206 07008KT CAVOK

Observaciones y pronósticos meteorológicos de más de 4000 aeropuertos (mensajes METAR y TAF).

Los puntos amarillos y rojos representan las estaciones disponibles.

Ponga el ratón en el punto deseado para ver el nombre de la estación.

Haga clic para ver las observaciones y los pronósticos meteorológicos.

Para cambiar el mapa : haga clic en los botones verdes con una cruz de color negro para hacer un zoom, en el botón verde con un guión para alejar o en las flechas verdes para mapas adyacentes.


METAR-TAF: